createdAt,value
2023-06-10T00:04:31.899Z,97385.69
2023-06-10T00:09:34.852Z,97307.00
2023-06-10T00:14:39.774Z,97371.59
2023-06-10T00:19:43.273Z,97169.81
2023-06-10T00:24:47.046Z,97345.63
2023-06-10T00:29:49.713Z,97260.66
2023-06-10T00:34:59.729Z,97238.41
2023-06-10T00:40:02.752Z,97352.34
2023-06-10T00:45:06.293Z,97303.88
2023-06-10T00:50:09.434Z,97341.69
2023-06-10T00:55:12.625Z,97178.19
2023-06-10T01:00:15.891Z,97248.38
2023-06-10T01:05:18.513Z,97306.13
2023-06-10T01:10:50.445Z,97346.72
2023-06-10T01:15:54.388Z,97313.44
2023-06-10T01:20:58.360Z,97087.69
2023-06-10T01:26:04.815Z,97251.56
2023-06-10T01:31:28.232Z,97309.47
2023-06-10T01:36:33.625Z,97224.56
2023-06-10T01:41:37.871Z,97284.00
2023-06-10T01:46:40.907Z,97186.19
2023-06-10T01:51:43.632Z,97219.25
2023-06-10T01:56:46.266Z,97237.75
2023-06-10T02:01:53.876Z,97168.31
2023-06-10T02:06:57.619Z,97320.06
2023-06-10T02:12:01.839Z,97285.53
2023-06-10T02:17:04.614Z,97134.00
2023-06-10T02:22:07.467Z,97321.06
2023-06-10T02:27:10.303Z,97328.94
2023-06-10T02:32:13.039Z,97322.88
2023-06-10T02:37:16.762Z,97224.50
2023-06-10T02:42:19.676Z,97337.72
2023-06-10T02:47:22.345Z,97269.91
2023-06-10T02:52:25.242Z,97286.19
2023-06-10T02:57:28.459Z,97071.13
2023-06-10T03:02:41.431Z,97061.50
2023-06-10T03:07:44.221Z,97342.25
2023-06-10T03:12:46.962Z,97350.41
2023-06-10T03:17:50.501Z,97089.31
2023-06-10T03:22:53.697Z,97213.81
2023-06-10T03:28:02.599Z,97215.91
2023-06-10T03:33:05.510Z,97283.72
2023-06-10T03:38:08.189Z,97208.13
2023-06-10T03:43:10.911Z,97161.97
2023-06-10T03:48:13.609Z,97125.84
2023-06-10T03:53:16.640Z,97252.06
2023-06-10T03:58:20.289Z,97148.13
2023-06-10T04:03:23.200Z,97337.13
2023-06-10T04:08:25.941Z,97323.50
2023-06-10T04:13:29.525Z,97182.75
2023-06-10T04:18:32.392Z,97045.00
2023-06-10T04:23:35.097Z,97319.19
2023-06-10T04:28:38.475Z,97115.69
2023-06-10T04:33:41.298Z,97229.16
2023-06-10T04:38:44.515Z,97062.56
2023-06-10T04:43:47.237Z,97325.69
2023-06-10T04:48:50.964Z,97203.16
2023-06-10T04:53:54.318Z,97281.41
2023-06-10T04:58:56.931Z,97231.34
2023-06-10T05:03:59.909Z,97313.84
2023-06-10T05:09:03.487Z,97295.31
2023-06-10T05:14:06.372Z,97294.19
2023-06-10T05:19:09.270Z,97044.31
2023-06-10T05:24:12.077Z,97151.72
2023-06-10T05:29:14.745Z,97224.34
2023-06-10T05:34:17.361Z,97223.47
2023-06-10T05:39:30.004Z,97179.19
2023-06-10T05:44:32.690Z,97218.03
2023-06-10T05:49:35.434Z,97121.19
2023-06-10T05:54:38.348Z,97210.81
2023-06-10T05:59:41.098Z,97235.94
2023-06-10T06:04:43.694Z,97304.44
2023-06-10T06:09:46.406Z,97283.53
2023-06-10T06:14:51.094Z,97248.50
2023-06-10T06:19:53.820Z,97271.16
2023-06-10T06:24:56.594Z,97270.56
2023-06-10T06:29:59.332Z,97134.78
2023-06-10T06:35:12.708Z,97274.06
2023-06-10T06:40:16.129Z,97044.97
2023-06-10T06:45:18.754Z,97274.00
2023-06-10T06:50:21.406Z,97271.06
2023-06-10T06:55:24.192Z,97261.78
2023-06-10T07:00:26.960Z,97171.78
2023-06-10T07:05:29.760Z,97257.53
2023-06-10T07:10:32.787Z,97182.69
2023-06-10T07:15:35.740Z,97237.41
2023-06-10T07:20:38.618Z,97157.66
2023-06-10T07:25:44.025Z,97065.97
2023-06-10T07:30:47.216Z,96978.06
2023-06-10T07:35:49.880Z,96981.72
2023-06-10T07:41:02.911Z,97235.56
2023-06-10T07:46:07.558Z,97147.53
2023-06-10T07:51:18.535Z,97108.03
2023-06-10T07:56:23.548Z,97160.59
2023-06-10T08:01:37.899Z,97227.44
2023-06-10T08:06:40.497Z,97124.06
2023-06-10T08:11:43.218Z,97201.84
2023-06-10T08:16:46.714Z,97170.16
2023-06-10T08:21:49.417Z,97213.88
2023-06-10T08:26:52.120Z,97188.63
2023-06-10T08:31:54.902Z,97217.38
2023-06-10T08:36:57.654Z,97211.53
2023-06-10T08:42:09.777Z,97214.22
2023-06-10T08:47:17.342Z,97164.28
2023-06-10T08:52:21.879Z,97211.31
2023-06-10T08:57:25.272Z,97172.19
2023-06-10T09:02:29.432Z,97214.69
2023-06-10T09:26:41.963Z,97190.50
2023-06-10T09:31:46.317Z,97193.78
2023-06-10T09:46:56.575Z,97131.19
2023-06-10T09:52:00.037Z,97180.16
2023-06-10T09:57:09.724Z,96986.00
2023-06-10T10:02:21.218Z,97132.53
2023-06-10T10:12:17.875Z,97132.78
2023-06-10T10:44:14.686Z,97154.47
2023-06-10T10:49:20.011Z,97111.91
2023-06-10T11:00:14.032Z,97066.38
2023-06-10T11:05:18.483Z,97135.84
2023-06-10T11:10:31.391Z,97050.72
2023-06-10T11:15:35.516Z,97128.66
2023-06-10T11:21:00.702Z,97107.69
2023-06-10T11:26:29.141Z,97136.28
2023-06-10T11:31:35.158Z,96868.41
2023-06-10T11:36:44.360Z,97149.47
2023-06-10T11:41:48.193Z,96973.13
2023-06-10T11:46:52.126Z,97135.31
2023-06-10T11:51:55.600Z,97244.81
2023-06-10T11:57:01.164Z,97291.69
2023-06-10T12:02:05.040Z,97314.78
2023-06-10T12:07:09.185Z,97339.03
2023-06-10T12:12:22.869Z,97353.34
2023-06-10T12:17:32.587Z,97391.06
2023-06-10T12:22:43.741Z,97405.66
2023-06-10T12:27:55.843Z,97384.09
2023-06-10T12:32:59.886Z,97327.41
2023-06-10T12:38:06.507Z,97386.94
2023-06-10T12:43:10.260Z,97375.91
2023-06-10T12:48:14.225Z,97392.97
2023-06-10T12:53:18.412Z,97408.00
2023-06-10T12:58:23.774Z,97411.81
2023-06-10T13:03:27.567Z,97430.81
2023-06-10T13:08:30.954Z,97414.03
2023-06-10T13:13:34.305Z,97408.59
2023-06-10T13:18:40.182Z,97413.81
2023-06-10T13:23:48.054Z,97418.00
2023-06-10T13:28:51.768Z,97383.84
2023-06-10T13:33:55.387Z,97377.47
2023-06-10T13:38:58.811Z,97318.06
2023-06-10T13:44:02.167Z,97428.50
2023-06-10T13:49:05.604Z,97351.13
2023-06-10T13:54:09.062Z,97423.22
2023-06-10T13:59:12.424Z,97386.75
2023-06-10T14:04:16.042Z,97397.09
2023-06-10T14:09:19.563Z,97413.13
2023-06-10T14:14:24.391Z,97384.72
2023-06-10T14:19:27.812Z,97366.78
2023-06-10T14:24:41.388Z,97338.44
2023-06-10T14:29:51.542Z,97345.06
2023-06-10T14:34:55.044Z,97263.19
2023-06-10T14:39:58.655Z,97326.75
2023-06-10T14:45:02.402Z,97316.69
2023-06-10T14:50:06.481Z,97354.69
2023-06-10T14:55:18.045Z,97288.31
2023-06-10T15:00:24.325Z,97331.03
2023-06-10T15:05:27.745Z,97299.66
2023-06-10T15:10:31.821Z,97346.16
2023-06-10T15:28:46.510Z,97329.38
2023-06-10T15:33:50.002Z,97289.38
2023-06-10T15:38:56.023Z,97305.16
2023-06-10T15:44:03.429Z,97208.66
2023-06-10T15:49:07.099Z,97202.72
2023-06-10T15:54:10.949Z,97247.03
2023-06-10T15:59:24.495Z,97280.50
2023-06-10T16:04:31.315Z,97260.00
2023-06-10T16:09:35.065Z,97310.78
2023-06-10T16:14:48.941Z,97262.41
2023-06-10T16:19:52.398Z,97203.00
2023-06-10T16:24:56.242Z,97134.31
2023-06-10T16:29:59.824Z,97275.97
2023-06-10T16:35:03.284Z,97239.13
2023-06-10T16:40:07.179Z,97220.97
2023-06-10T16:45:11.267Z,97146.41
2023-06-10T16:50:21.349Z,97235.28
2023-06-10T16:55:24.813Z,97286.88
2023-06-10T17:00:28.216Z,97198.97
2023-06-10T17:05:32.111Z,97224.22
2023-06-10T17:10:36.896Z,97344.06
2023-06-10T17:15:46.291Z,97304.94
2023-06-10T17:20:50.045Z,97319.22
2023-06-10T17:26:03.969Z,97312.50
2023-06-10T17:31:07.739Z,97293.72
2023-06-10T17:36:11.456Z,97294.00
2023-06-10T17:41:15.969Z,97317.53
2023-06-10T17:46:21.701Z,97327.75
2023-06-10T17:51:25.512Z,97281.00
2023-06-10T17:56:29.258Z,97372.28
2023-06-10T18:01:32.792Z,97322.72
2023-06-10T18:06:36.522Z,97350.34
2023-06-10T18:11:40.662Z,97338.16
2023-06-10T18:16:44.500Z,97376.97
2023-06-10T18:21:48.278Z,97391.72
2023-06-10T18:27:02.401Z,97259.44
2023-06-10T18:32:06.153Z,97386.22
2023-06-10T18:37:10.620Z,97343.94
2023-06-10T18:42:24.289Z,97355.69
2023-06-10T18:47:52.852Z,97240.97
2023-06-10T18:53:01.206Z,97358.13
2023-06-10T18:58:05.799Z,97401.06
2023-06-10T19:03:09.648Z,97299.69
2023-06-10T19:08:13.352Z,97344.63
2023-06-10T19:13:17.109Z,97305.28
2023-06-10T19:18:20.997Z,97334.25
2023-06-10T19:23:24.775Z,97288.22
2023-06-10T19:28:28.512Z,97337.66
2023-06-10T19:33:42.257Z,97356.66
2023-06-10T19:38:46.017Z,97390.38
2023-06-10T19:43:51.474Z,97400.03
2023-06-10T19:48:55.137Z,97262.28
2023-06-10T19:53:58.585Z,97404.41
2023-06-10T19:59:02.209Z,97378.59
2023-06-10T20:04:06.066Z,97431.66
2023-06-10T20:09:10.035Z,97403.19
2023-06-10T20:14:13.762Z,97303.75
2023-06-10T20:19:17.257Z,97289.41
2023-06-10T20:24:20.718Z,97450.75
2023-06-10T20:29:24.424Z,97426.63
2023-06-10T20:34:28.140Z,97410.38
2023-06-10T20:39:32.029Z,97358.34
2023-06-10T20:44:45.607Z,97394.28
2023-06-10T20:49:58.991Z,97216.06
2023-06-10T20:55:02.338Z,97360.78
2023-06-10T21:00:06.389Z,97432.50
2023-06-10T21:05:10.230Z,97408.16
2023-06-10T21:10:17.974Z,97406.94
2023-06-10T21:15:31.435Z,97332.94
2023-06-10T21:20:34.911Z,97364.00
2023-06-10T21:25:38.264Z,97432.78
2023-06-10T21:30:44.096Z,97437.41
2023-06-10T21:35:47.512Z,97361.63
2023-06-10T21:40:50.888Z,97430.41
2023-06-10T21:45:57.115Z,97276.06
2023-06-10T21:51:00.812Z,97381.38
2023-06-10T21:56:14.293Z,97365.47
2023-06-10T22:01:18.283Z,97396.44
2023-06-10T22:06:26.662Z,97426.22
2023-06-10T22:11:40.138Z,97434.13
2023-06-10T22:16:54.194Z,97426.19
2023-06-10T22:21:57.722Z,97408.66
2023-06-10T22:27:01.712Z,97414.38
2023-06-10T22:32:05.388Z,97405.03
2023-06-10T22:37:08.778Z,97381.09
2023-06-10T22:42:12.700Z,97396.06
2023-06-10T22:47:16.380Z,97294.16
2023-06-10T22:52:20.168Z,97378.63
2023-06-10T22:57:23.588Z,97379.56
2023-06-10T23:02:27.435Z,97389.25
2023-06-10T23:07:40.943Z,97356.69
2023-06-10T23:12:47.506Z,97380.00
2023-06-10T23:17:51.748Z,97378.91
2023-06-10T23:22:55.221Z,97424.22
2023-06-10T23:27:58.831Z,97325.13
2023-06-10T23:33:02.284Z,97335.97
2023-06-10T23:38:05.697Z,97400.69
2023-06-10T23:43:09.259Z,97306.16
2023-06-10T23:48:12.733Z,97250.97
2023-06-10T23:53:16.286Z,97240.56
2023-06-10T23:58:20.310Z,97059.09
